Terminal Aerodrome Forecast
Issued by NWS

Home | Current Version | Previous Version | Text Only | Print | Product List | Glossary On
Versions: 1 2 3 4 5 6 7 8 9 10 11 12 13 14 15 16
000
FTUS41 KCAR 272344
TAFHUL
TAF
KHUL 272344Z 2800/2824 02006KT P6SM SCT025
     FM280700 36006KT P6SM OVC030
     FM281100 35009KT P6SM SCT025 OVC035
     FM281700 36010G20KT P6SM OVC045=

USA.gov is the U.S. government's official web portal to all federal, state and local government web resources and services.